sensor_id;sensor_type;location;lat;lon;timestamp;P1;durP1;ratioP1;P2;durP2;ratioP2
38222;SDS011;24024;51.186;6.458;2023-11-21T00:00:17;17.17;;;7.82;;
38222;SDS011;24024;51.186;6.458;2023-11-21T00:02:44;16.17;;;7.82;;
38222;SDS011;24024;51.186;6.458;2023-11-21T00:05:14;15.00;;;8.25;;
38222;SDS011;24024;51.186;6.458;2023-11-21T00:07:41;14.90;;;8.10;;
38222;SDS011;24024;51.186;6.458;2023-11-21T00:10:08;18.23;;;7.82;;
38222;SDS011;24024;51.186;6.458;2023-11-21T00:12:37;17.40;;;9.75;;
38222;SDS011;24024;51.186;6.458;2023-11-21T00:15:10;20.48;;;10.18;;
38222;SDS011;24024;51.186;6.458;2023-11-21T00:17:42;16.80;;;10.07;;
38222;SDS011;24024;51.186;6.458;2023-11-21T00:20:12;22.38;;;11.32;;
38222;SDS011;24024;51.186;6.458;2023-11-21T00:22:40;21.58;;;11.05;;
38222;SDS011;24024;51.186;6.458;2023-11-21T00:25:07;18.75;;;11.13;;
38222;SDS011;24024;51.186;6.458;2023-11-21T00:27:35;19.50;;;11.30;;
38222;SDS011;24024;51.186;6.458;2023-11-21T00:30:03;21.98;;;11.07;;
38222;SDS011;24024;51.186;6.458;2023-11-21T00:32:39;24.00;;;10.95;;
38222;SDS011;24024;51.186;6.458;2023-11-21T00:35:06;18.90;;;10.47;;
38222;SDS011;24024;51.186;6.458;2023-11-21T00:37:33;18.88;;;10.52;;
38222;SDS011;24024;51.186;6.458;2023-11-21T00:40:01;20.98;;;11.15;;
38222;SDS011;24024;51.186;6.458;2023-11-21T00:45:03;20.95;;;11.57;;
38222;SDS011;24024;51.186;6.458;2023-11-21T00:47:30;21.40;;;11.88;;
38222;SDS011;24024;51.186;6.458;2023-11-21T00:50:02;20.30;;;12.25;;
38222;SDS011;24024;51.186;6.458;2023-11-21T00:52:29;23.23;;;12.00;;
38222;SDS011;24024;51.186;6.458;2023-11-21T00:54:58;24.92;;;12.85;;
38222;SDS011;24024;51.186;6.458;2023-11-21T00:57:26;24.35;;;13.13;;
38222;SDS011;24024;51.186;6.458;2023-11-21T00:59:55;18.05;;;10.48;;
38222;SDS011;24024;51.186;6.458;2023-11-21T01:02:22;23.55;;;12.48;;
38222;SDS011;24024;51.186;6.458;2023-11-21T01:04:51;20.80;;;12.70;;
38222;SDS011;24024;51.186;6.458;2023-11-21T01:07:21;23.05;;;13.10;;
38222;SDS011;24024;51.186;6.458;2023-11-21T01:09:48;22.00;;;11.95;;
38222;SDS011;24024;51.186;6.458;2023-11-21T01:12:17;25.25;;;12.45;;
38222;SDS011;24024;51.186;6.458;2023-11-21T01:14:46;29.33;;;13.43;;
38222;SDS011;24024;51.186;6.458;2023-11-21T01:17:15;24.60;;;13.07;;
38222;SDS011;24024;51.186;6.458;2023-11-21T01:19:43;25.90;;;14.35;;
38222;SDS011;24024;51.186;6.458;2023-11-21T01:22:12;25.23;;;13.50;;
38222;SDS011;24024;51.186;6.458;2023-11-21T01:24:47;23.70;;;13.57;;
38222;SDS011;24024;51.186;6.458;2023-11-21T01:27:14;26.85;;;13.20;;
38222;SDS011;24024;51.186;6.458;2023-11-21T01:29:43;24.55;;;14.10;;
38222;SDS011;24024;51.186;6.458;2023-11-21T01:32:10;21.25;;;12.88;;
38222;SDS011;24024;51.186;6.458;2023-11-21T01:34:40;25.35;;;13.80;;
38222;SDS011;24024;51.186;6.458;2023-11-21T01:37:07;22.50;;;14.38;;
38222;SDS011;24024;51.186;6.458;2023-11-21T01:39:33;24.77;;;14.18;;
38222;SDS011;24024;51.186;6.458;2023-11-21T01:42:00;25.63;;;13.68;;
38222;SDS011;24024;51.186;6.458;2023-11-21T01:44:27;26.00;;;13.57;;
38222;SDS011;24024;51.186;6.458;2023-11-21T01:46:54;28.30;;;13.75;;
38222;SDS011;24024;51.186;6.458;2023-11-21T01:49:23;24.75;;;13.80;;
38222;SDS011;24024;51.186;6.458;2023-11-21T01:51:50;26.83;;;13.98;;
38222;SDS011;24024;51.186;6.458;2023-11-21T01:54:18;24.70;;;14.18;;
38222;SDS011;24024;51.186;6.458;2023-11-21T01:56:47;26.95;;;14.45;;
38222;SDS011;24024;51.186;6.458;2023-11-21T01:59:15;32.85;;;16.05;;
38222;SDS011;24024;51.186;6.458;2023-11-21T02:01:45;33.10;;;16.65;;
38222;SDS011;24024;51.186;6.458;2023-11-21T02:04:13;28.75;;;14.63;;
38222;SDS011;24024;51.186;6.458;2023-11-21T02:06:40;31.25;;;15.13;;
38222;SDS011;24024;51.186;6.458;2023-11-21T02:09:07;29.90;;;15.73;;
38222;SDS011;24024;51.186;6.458;2023-11-21T02:11:35;26.25;;;14.70;;
38222;SDS011;24024;51.186;6.458;2023-11-21T02:14:01;28.05;;;15.35;;
38222;SDS011;24024;51.186;6.458;2023-11-21T02:16:29;29.17;;;15.25;;
38222;SDS011;24024;51.186;6.458;2023-11-21T02:18:59;26.58;;;14.75;;
38222;SDS011;24024;51.186;6.458;2023-11-21T02:21:32;29.10;;;14.82;;
38222;SDS011;24024;51.186;6.458;2023-11-21T02:23:59;28.10;;;14.95;;
38222;SDS011;24024;51.186;6.458;2023-11-21T02:26:26;24.92;;;14.50;;
38222;SDS011;24024;51.186;6.458;2023-11-21T02:28:55;28.55;;;14.57;;
38222;SDS011;24024;51.186;6.458;2023-11-21T02:31:24;25.88;;;14.95;;
38222;SDS011;24024;51.186;6.458;2023-11-21T02:33:55;25.00;;;14.27;;
38222;SDS011;24024;51.186;6.458;2023-11-21T02:36:22;23.35;;;13.32;;
38222;SDS011;24024;51.186;6.458;2023-11-21T02:38:49;27.05;;;14.85;;
38222;SDS011;24024;51.186;6.458;2023-11-21T02:41:18;24.33;;;14.30;;
38222;SDS011;24024;51.186;6.458;2023-11-21T02:43:45;25.30;;;13.95;;
38222;SDS011;24024;51.186;6.458;2023-11-21T02:46:11;26.95;;;13.90;;
38222;SDS011;24024;51.186;6.458;2023-11-21T02:48:38;29.50;;;14.73;;
38222;SDS011;24024;51.186;6.458;2023-11-21T02:51:05;26.85;;;14.27;;
38222;SDS011;24024;51.186;6.458;2023-11-21T02:53:31;29.15;;;14.85;;
38222;SDS011;24024;51.186;6.458;2023-11-21T02:56:03;23.95;;;12.75;;
38222;SDS011;24024;51.186;6.458;2023-11-21T02:58:33;29.83;;;14.07;;
38222;SDS011;24024;51.186;6.458;2023-11-21T03:01:00;32.13;;;16.17;;
38222;SDS011;24024;51.186;6.458;2023-11-21T03:03:26;24.85;;;13.98;;
38222;SDS011;24024;51.186;6.458;2023-11-21T03:05:53;26.48;;;14.65;;
38222;SDS011;24024;51.186;6.458;2023-11-21T03:08:20;25.77;;;14.23;;
38222;SDS011;24024;51.186;6.458;2023-11-21T03:10:49;28.38;;;14.50;;
38222;SDS011;24024;51.186;6.458;2023-11-21T03:13:16;25.63;;;14.32;;
38222;SDS011;24024;51.186;6.458;2023-11-21T03:15:43;28.02;;;14.20;;
38222;SDS011;24024;51.186;6.458;2023-11-21T03:18:12;25.58;;;14.23;;
38222;SDS011;24024;51.186;6.458;2023-11-21T03:20:41;25.58;;;15.32;;
38222;SDS011;24024;51.186;6.458;2023-11-21T03:23:16;28.48;;;14.90;;
38222;SDS011;24024;51.186;6.458;2023-11-21T03:25:42;24.95;;;14.68;;
38222;SDS011;24024;51.186;6.458;2023-11-21T03:28:14;22.58;;;12.82;;
38222;SDS011;24024;51.186;6.458;2023-11-21T03:30:41;27.13;;;13.57;;
38222;SDS011;24024;51.186;6.458;2023-11-21T03:33:07;30.05;;;14.88;;
38222;SDS011;24024;51.186;6.458;2023-11-21T03:35:34;27.52;;;14.77;;
38222;SDS011;24024;51.186;6.458;2023-11-21T03:38:01;27.42;;;15.60;;
38222;SDS011;24024;51.186;6.458;2023-11-21T03:40:28;29.60;;;15.52;;
38222;SDS011;24024;51.186;6.458;2023-11-21T03:42:57;27.25;;;15.48;;
38222;SDS011;24024;51.186;6.458;2023-11-21T03:45:24;29.50;;;15.80;;
38222;SDS011;24024;51.186;6.458;2023-11-21T03:47:51;31.58;;;16.20;;
38222;SDS011;24024;51.186;6.458;2023-11-21T03:50:18;28.50;;;15.05;;
38222;SDS011;24024;51.186;6.458;2023-11-21T03:52:49;30.92;;;15.73;;
38222;SDS011;24024;51.186;6.458;2023-11-21T03:55:18;27.92;;;14.38;;
38222;SDS011;24024;51.186;6.458;2023-11-21T03:57:49;29.42;;;15.05;;
38222;SDS011;24024;51.186;6.458;2023-11-21T04:00:16;34.00;;;16.13;;
38222;SDS011;24024;51.186;6.458;2023-11-21T04:02:44;30.90;;;15.50;;
38222;SDS011;24024;51.186;6.458;2023-11-21T04:05:14;29.98;;;15.05;;
38222;SDS011;24024;51.186;6.458;2023-11-21T04:07:41;30.27;;;15.63;;
38222;SDS011;24024;51.186;6.458;2023-11-21T04:10:08;30.20;;;15.80;;
38222;SDS011;24024;51.186;6.458;2023-11-21T04:12:39;32.55;;;15.75;;
38222;SDS011;24024;51.186;6.458;2023-11-21T04:15:06;31.25;;;15.75;;
38222;SDS011;24024;51.186;6.458;2023-11-21T04:17:35;31.33;;;15.95;;
38222;SDS011;24024;51.186;6.458;2023-11-21T04:20:03;30.77;;;15.95;;
38222;SDS011;24024;51.186;6.458;2023-11-21T04:22:40;29.92;;;16.27;;
38222;SDS011;24024;51.186;6.458;2023-11-21T04:25:10;31.08;;;15.55;;
38222;SDS011;24024;51.186;6.458;2023-11-21T04:27:44;36.42;;;17.95;;
38222;SDS011;24024;51.186;6.458;2023-11-21T04:30:12;37.03;;;17.67;;
38222;SDS011;24024;51.186;6.458;2023-11-21T04:32:42;34.35;;;17.80;;
38222;SDS011;24024;51.186;6.458;2023-11-21T04:35:12;34.67;;;17.23;;
38222;SDS011;24024;51.186;6.458;2023-11-21T04:37:41;34.92;;;16.60;;
38222;SDS011;24024;51.186;6.458;2023-11-21T04:40:10;36.88;;;16.92;;
38222;SDS011;24024;51.186;6.458;2023-11-21T04:42:37;35.40;;;16.48;;
38222;SDS011;24024;51.186;6.458;2023-11-21T04:45:05;36.63;;;16.95;;
38222;SDS011;24024;51.186;6.458;2023-11-21T04:47:36;34.08;;;16.98;;
38222;SDS011;24024;51.186;6.458;2023-11-21T04:50:07;37.50;;;18.15;;
38222;SDS011;24024;51.186;6.458;2023-11-21T04:52:34;34.35;;;16.17;;
38222;SDS011;24024;51.186;6.458;2023-11-21T04:55:06;34.35;;;17.67;;
38222;SDS011;24024;51.186;6.458;2023-11-21T04:57:36;42.92;;;19.30;;
38222;SDS011;24024;51.186;6.458;2023-11-21T05:00:03;39.25;;;18.98;;
38222;SDS011;24024;51.186;6.458;2023-11-21T05:02:32;38.20;;;17.92;;
38222;SDS011;24024;51.186;6.458;2023-11-21T05:05:02;38.22;;;18.85;;
38222;SDS011;24024;51.186;6.458;2023-11-21T05:07:32;43.35;;;19.30;;
38222;SDS011;24024;51.186;6.458;2023-11-21T05:10:02;41.20;;;20.50;;
38222;SDS011;24024;51.186;6.458;2023-11-21T05:12:31;38.97;;;20.35;;
38222;SDS011;24024;51.186;6.458;2023-11-21T05:15:04;39.38;;;19.75;;
38222;SDS011;24024;51.186;6.458;2023-11-21T05:17:34;41.08;;;20.90;;
38222;SDS011;24024;51.186;6.458;2023-11-21T05:20:03;46.88;;;23.55;;
38222;SDS011;24024;51.186;6.458;2023-11-21T05:22:34;40.63;;;20.90;;
38222;SDS011;24024;51.186;6.458;2023-11-21T05:25:02;42.42;;;20.50;;
38222;SDS011;24024;51.186;6.458;2023-11-21T05:27:34;41.33;;;20.67;;
38222;SDS011;24024;51.186;6.458;2023-11-21T05:30:02;42.88;;;20.90;;
38222;SDS011;24024;51.186;6.458;2023-11-21T05:32:32;42.72;;;20.88;;
38222;SDS011;24024;51.186;6.458;2023-11-21T05:35:01;42.67;;;21.08;;
38222;SDS011;24024;51.186;6.458;2023-11-21T05:37:28;39.95;;;21.63;;
38222;SDS011;24024;51.186;6.458;2023-11-21T05:39:55;44.17;;;21.45;;
38222;SDS011;24024;51.186;6.458;2023-11-21T05:42:30;45.78;;;21.48;;
38222;SDS011;24024;51.186;6.458;2023-11-21T05:44:58;47.83;;;22.15;;
38222;SDS011;24024;51.186;6.458;2023-11-21T05:47:40;47.83;;;22.00;;
38222;SDS011;24024;51.186;6.458;2023-11-21T05:50:09;41.15;;;20.92;;
38222;SDS011;24024;51.186;6.458;2023-11-21T05:52:38;43.50;;;21.88;;
38222;SDS011;24024;51.186;6.458;2023-11-21T05:55:08;44.90;;;22.35;;
38222;SDS011;24024;51.186;6.458;2023-11-21T05:57:35;44.03;;;21.92;;
38222;SDS011;24024;51.186;6.458;2023-11-21T06:00:09;45.25;;;22.48;;
38222;SDS011;24024;51.186;6.458;2023-11-21T06:02:47;43.22;;;22.67;;
38222;SDS011;24024;51.186;6.458;2023-11-21T06:05:23;46.47;;;21.88;;
38222;SDS011;24024;51.186;6.458;2023-11-21T06:07:53;46.55;;;22.83;;
38222;SDS011;24024;51.186;6.458;2023-11-21T06:10:21;52.15;;;23.17;;
38222;SDS011;24024;51.186;6.458;2023-11-21T06:12:50;43.45;;;21.45;;
38222;SDS011;24024;51.186;6.458;2023-11-21T06:15:17;49.47;;;24.70;;
38222;SDS011;24024;51.186;6.458;2023-11-21T06:17:45;50.10;;;24.13;;
38222;SDS011;24024;51.186;6.458;2023-11-21T06:20:15;50.63;;;24.80;;
38222;SDS011;24024;51.186;6.458;2023-11-21T06:22:45;50.45;;;24.02;;
38222;SDS011;24024;51.186;6.458;2023-11-21T06:25:13;50.97;;;25.63;;
38222;SDS011;24024;51.186;6.458;2023-11-21T06:27:41;48.05;;;23.35;;
38222;SDS011;24024;51.186;6.458;2023-11-21T06:30:11;47.95;;;23.75;;
38222;SDS011;24024;51.186;6.458;2023-11-21T06:32:42;50.70;;;24.80;;
38222;SDS011;24024;51.186;6.458;2023-11-21T06:35:16;52.88;;;24.83;;
38222;SDS011;24024;51.186;6.458;2023-11-21T06:37:45;53.75;;;25.25;;
38222;SDS011;24024;51.186;6.458;2023-11-21T06:40:15;51.20;;;26.17;;
38222;SDS011;24024;51.186;6.458;2023-11-21T06:42:44;50.75;;;25.27;;
38222;SDS011;24024;51.186;6.458;2023-11-21T06:45:12;58.78;;;26.35;;
38222;SDS011;24024;51.186;6.458;2023-11-21T06:47:39;60.00;;;26.67;;
38222;SDS011;24024;51.186;6.458;2023-11-21T06:50:08;56.97;;;25.13;;
38222;SDS011;24024;51.186;6.458;2023-11-21T06:52:35;60.72;;;27.02;;
38222;SDS011;24024;51.186;6.458;2023-11-21T06:55:05;57.58;;;26.85;;
38222;SDS011;24024;51.186;6.458;2023-11-21T06:57:35;57.97;;;26.27;;
38222;SDS011;24024;51.186;6.458;2023-11-21T07:00:02;60.42;;;26.25;;
38222;SDS011;24024;51.186;6.458;2023-11-21T07:02:29;59.90;;;27.02;;
38222;SDS011;24024;51.186;6.458;2023-11-21T07:05:01;67.15;;;27.48;;
38222;SDS011;24024;51.186;6.458;2023-11-21T07:07:30;63.95;;;28.27;;
38222;SDS011;24024;51.186;6.458;2023-11-21T07:10:01;59.67;;;26.27;;
38222;SDS011;24024;51.186;6.458;2023-11-21T07:12:30;63.28;;;25.77;;
38222;SDS011;24024;51.186;6.458;2023-11-21T07:15:00;68.13;;;27.45;;
38222;SDS011;24024;51.186;6.458;2023-11-21T07:17:26;62.17;;;27.52;;
38222;SDS011;24024;51.186;6.458;2023-11-21T07:19:56;65.57;;;28.38;;
38222;SDS011;24024;51.186;6.458;2023-11-21T07:22:23;67.05;;;28.20;;
38222;SDS011;24024;51.186;6.458;2023-11-21T07:24:49;65.97;;;27.95;;
38222;SDS011;24024;51.186;6.458;2023-11-21T07:27:19;57.33;;;25.73;;
38222;SDS011;24024;51.186;6.458;2023-11-21T07:29:46;64.97;;;28.45;;
38222;SDS011;24024;51.186;6.458;2023-11-21T07:32:15;64.05;;;28.15;;
38222;SDS011;24024;51.186;6.458;2023-11-21T07:34:42;68.53;;;28.25;;
38222;SDS011;24024;51.186;6.458;2023-11-21T07:37:11;62.05;;;26.05;;
38222;SDS011;24024;51.186;6.458;2023-11-21T07:39:38;72.32;;;29.42;;
38222;SDS011;24024;51.186;6.458;2023-11-21T07:42:08;63.05;;;26.17;;
38222;SDS011;24024;51.186;6.458;2023-11-21T07:44:35;62.70;;;26.25;;
38222;SDS011;24024;51.186;6.458;2023-11-21T07:47:04;64.13;;;26.65;;
38222;SDS011;24024;51.186;6.458;2023-11-21T07:49:31;67.85;;;27.38;;
38222;SDS011;24024;51.186;6.458;2023-11-21T07:51:58;63.47;;;27.00;;
38222;SDS011;24024;51.186;6.458;2023-11-21T07:54:25;63.15;;;27.63;;
38222;SDS011;24024;51.186;6.458;2023-11-21T07:56:54;66.53;;;28.30;;
38222;SDS011;24024;51.186;6.458;2023-11-21T07:59:20;70.97;;;28.58;;
38222;SDS011;24024;51.186;6.458;2023-11-21T08:01:47;71.63;;;28.75;;
38222;SDS011;24024;51.186;6.458;2023-11-21T08:04:14;63.97;;;27.23;;
38222;SDS011;24024;51.186;6.458;2023-11-21T08:06:41;68.95;;;27.83;;
38222;SDS011;24024;51.186;6.458;2023-11-21T08:09:08;70.07;;;28.63;;
38222;SDS011;24024;51.186;6.458;2023-11-21T08:11:35;75.95;;;27.55;;
38222;SDS011;24024;51.186;6.458;2023-11-21T08:14:01;72.15;;;28.15;;
38222;SDS011;24024;51.186;6.458;2023-11-21T08:16:33;75.18;;;28.38;;
38222;SDS011;24024;51.186;6.458;2023-11-21T08:19:02;76.65;;;28.90;;
38222;SDS011;24024;51.186;6.458;2023-11-21T08:21:29;77.10;;;28.20;;
38222;SDS011;24024;51.186;6.458;2023-11-21T08:23:56;73.47;;;27.38;;
38222;SDS011;24024;51.186;6.458;2023-11-21T08:26:22;67.82;;;26.77;;
38222;SDS011;24024;51.186;6.458;2023-11-21T08:28:49;75.05;;;27.48;;
38222;SDS011;24024;51.186;6.458;2023-11-21T08:31:23;73.20;;;27.58;;
38222;SDS011;24024;51.186;6.458;2023-11-21T08:33:51;71.20;;;26.60;;
38222;SDS011;24024;51.186;6.458;2023-11-21T08:36:22;73.13;;;25.75;;
38222;SDS011;24024;51.186;6.458;2023-11-21T08:38:50;72.13;;;27.05;;
38222;SDS011;24024;51.186;6.458;2023-11-21T08:41:21;68.65;;;25.88;;
38222;SDS011;24024;51.186;6.458;2023-11-21T08:43:51;71.18;;;26.48;;
38222;SDS011;24024;51.186;6.458;2023-11-21T08:46:21;68.72;;;26.17;;
38222;SDS011;24024;51.186;6.458;2023-11-21T08:48:49;71.40;;;26.83;;
38222;SDS011;24024;51.186;6.458;2023-11-21T08:51:18;72.10;;;26.98;;
38222;SDS011;24024;51.186;6.458;2023-11-21T08:53:45;70.65;;;26.75;;
38222;SDS011;24024;51.186;6.458;2023-11-21T08:56:12;67.38;;;26.33;;
38222;SDS011;24024;51.186;6.458;2023-11-21T08:58:42;73.93;;;27.75;;
38222;SDS011;24024;51.186;6.458;2023-11-21T09:01:11;75.65;;;28.13;;
38222;SDS011;24024;51.186;6.458;2023-11-21T09:03:38;68.72;;;26.70;;
38222;SDS011;24024;51.186;6.458;2023-11-21T09:06:13;73.47;;;27.30;;
38222;SDS011;24024;51.186;6.458;2023-11-21T09:08:48;75.78;;;27.63;;
38222;SDS011;24024;51.186;6.458;2023-11-21T09:11:15;68.90;;;26.80;;
38222;SDS011;24024;51.186;6.458;2023-11-21T09:13:45;76.25;;;28.60;;
38222;SDS011;24024;51.186;6.458;2023-11-21T09:16:13;75.20;;;26.95;;
38222;SDS011;24024;51.186;6.458;2023-11-21T09:18:41;68.47;;;27.30;;
38222;SDS011;24024;51.186;6.458;2023-11-21T09:21:08;77.22;;;27.52;;
38222;SDS011;24024;51.186;6.458;2023-11-21T09:23:35;73.53;;;25.85;;
38222;SDS011;24024;51.186;6.458;2023-11-21T09:26:04;74.55;;;26.50;;
38222;SDS011;24024;51.186;6.458;2023-11-21T09:28:31;74.28;;;26.83;;
38222;SDS011;24024;51.186;6.458;2023-11-21T09:30:58;72.55;;;26.02;;
38222;SDS011;24024;51.186;6.458;2023-11-21T09:33:29;72.03;;;25.17;;
38222;SDS011;24024;51.186;6.458;2023-11-21T09:35:57;64.25;;;22.02;;
38222;SDS011;24024;51.186;6.458;2023-11-21T09:38:24;56.60;;;21.65;;
38222;SDS011;24024;51.186;6.458;2023-11-21T09:40:50;64.80;;;23.58;;
38222;SDS011;24024;51.186;6.458;2023-11-21T09:43:20;59.78;;;22.38;;
38222;SDS011;24024;51.186;6.458;2023-11-21T09:45:54;61.97;;;22.45;;
38222;SDS011;24024;51.186;6.458;2023-11-21T09:48:26;63.40;;;23.67;;
38222;SDS011;24024;51.186;6.458;2023-11-21T09:50:58;66.15;;;24.10;;
38222;SDS011;24024;51.186;6.458;2023-11-21T09:53:26;59.15;;;21.15;;
38222;SDS011;24024;51.186;6.458;2023-11-21T09:55:57;54.25;;;20.80;;
38222;SDS011;24024;51.186;6.458;2023-11-21T09:58:28;58.03;;;21.15;;
38222;SDS011;24024;51.186;6.458;2023-11-21T10:01:00;55.67;;;21.93;;
38222;SDS011;24024;51.186;6.458;2023-11-21T10:03:29;58.03;;;21.73;;
38222;SDS011;24024;51.186;6.458;2023-11-21T10:05:57;60.22;;;21.20;;
38222;SDS011;24024;51.186;6.458;2023-11-21T10:08:27;58.47;;;22.92;;
38222;SDS011;24024;51.186;6.458;2023-11-21T10:11:15;59.25;;;23.20;;
38222;SDS011;24024;51.186;6.458;2023-11-21T10:13:45;61.13;;;23.05;;
38222;SDS011;24024;51.186;6.458;2023-11-21T10:16:14;56.53;;;21.02;;
38222;SDS011;24024;51.186;6.458;2023-11-21T10:18:48;62.10;;;22.50;;
38222;SDS011;24024;51.186;6.458;2023-11-21T10:21:18;59.28;;;22.48;;
38222;SDS011;24024;51.186;6.458;2023-11-21T10:23:45;62.55;;;22.25;;
38222;SDS011;24024;51.186;6.458;2023-11-21T10:26:13;58.88;;;22.05;;
38222;SDS011;24024;51.186;6.458;2023-11-21T10:28:59;55.60;;;22.73;;
38222;SDS011;24024;51.186;6.458;2023-11-21T10:31:32;61.25;;;21.08;;
38222;SDS011;24024;51.186;6.458;2023-11-21T10:34:16;60.25;;;23.08;;
38222;SDS011;24024;51.186;6.458;2023-11-21T10:36:45;55.63;;;20.80;;
38222;SDS011;24024;51.186;6.458;2023-11-21T10:39:19;50.67;;;20.95;;
38222;SDS011;24024;51.186;6.458;2023-11-21T10:41:50;50.45;;;20.05;;
38222;SDS011;24024;51.186;6.458;2023-11-21T10:44:17;49.42;;;19.88;;
38222;SDS011;24024;51.186;6.458;2023-11-21T10:46:58;43.80;;;17.88;;
38222;SDS011;24024;51.186;6.458;2023-11-21T10:49:27;39.55;;;15.88;;
38222;SDS011;24024;51.186;6.458;2023-11-21T10:51:59;34.20;;;15.93;;
38222;SDS011;24024;51.186;6.458;2023-11-21T10:54:30;36.53;;;15.88;;
38222;SDS011;24024;51.186;6.458;2023-11-21T10:56:57;40.17;;;16.38;;
38222;SDS011;24024;51.186;6.458;2023-11-21T10:59:28;37.30;;;15.63;;
38222;SDS011;24024;51.186;6.458;2023-11-21T11:01:57;35.60;;;14.55;;
38222;SDS011;24024;51.186;6.458;2023-11-21T11:04:29;37.88;;;15.88;;
38222;SDS011;24024;51.186;6.458;2023-11-21T11:07:01;36.42;;;16.33;;
38222;SDS011;24024;51.186;6.458;2023-11-21T11:09:31;43.97;;;16.58;;
38222;SDS011;24024;51.186;6.458;2023-11-21T11:12:02;33.97;;;15.07;;
38222;SDS011;24024;51.186;6.458;2023-11-21T11:14:32;34.13;;;15.32;;
38222;SDS011;24024;51.186;6.458;2023-11-21T11:17:02;44.05;;;16.40;;
38222;SDS011;24024;51.186;6.458;2023-11-21T11:19:32;40.95;;;16.20;;
38222;SDS011;24024;51.186;6.458;2023-11-21T11:27:52;36.20;;;14.55;;
38222;SDS011;24024;51.186;6.458;2023-11-21T11:30:37;31.17;;;14.48;;
38222;SDS011;24024;51.186;6.458;2023-11-21T11:38:31;36.45;;;14.30;;
38222;SDS011;24024;51.186;6.458;2023-11-21T11:41:01;37.20;;;15.32;;
38222;SDS011;24024;51.186;6.458;2023-11-21T11:43:30;36.92;;;15.13;;
38222;SDS011;24024;51.186;6.458;2023-11-21T11:46:02;37.10;;;15.32;;
38222;SDS011;24024;51.186;6.458;2023-11-21T11:48:30;37.15;;;15.05;;
38222;SDS011;24024;51.186;6.458;2023-11-21T11:51:11;33.78;;;15.63;;
38222;SDS011;24024;51.186;6.458;2023-11-21T11:53:47;42.40;;;16.27;;
38222;SDS011;24024;51.186;6.458;2023-11-21T11:56:30;32.53;;;14.38;;
38222;SDS011;24024;51.186;6.458;2023-11-21T11:59:03;36.38;;;14.63;;
38222;SDS011;24024;51.186;6.458;2023-11-21T12:01:32;31.60;;;14.65;;
38222;SDS011;24024;51.186;6.458;2023-11-21T12:06:45;34.60;;;13.27;;
38222;SDS011;24024;51.186;6.458;2023-11-21T12:09:19;26.95;;;12.80;;
38222;SDS011;24024;51.186;6.458;2023-11-21T12:11:50;31.77;;;13.55;;
38222;SDS011;24024;51.186;6.458;2023-11-21T12:14:18;32.30;;;14.63;;
38222;SDS011;24024;51.186;6.458;2023-11-21T12:16:44;35.88;;;14.60;;
38222;SDS011;24024;51.186;6.458;2023-11-21T12:19:14;34.53;;;14.20;;
38222;SDS011;24024;51.186;6.458;2023-11-21T12:21:41;36.83;;;15.25;;
38222;SDS011;24024;51.186;6.458;2023-11-21T12:24:08;38.33;;;15.80;;
38222;SDS011;24024;51.186;6.458;2023-11-21T12:26:35;31.33;;;15.38;;
38222;SDS011;24024;51.186;6.458;2023-11-21T12:29:07;35.72;;;15.60;;
38222;SDS011;24024;51.186;6.458;2023-11-21T12:31:34;30.70;;;15.15;;
38222;SDS011;24024;51.186;6.458;2023-11-21T12:34:02;34.67;;;15.60;;
38222;SDS011;24024;51.186;6.458;2023-11-21T12:36:30;36.00;;;15.65;;
38222;SDS011;24024;51.186;6.458;2023-11-21T12:39:01;33.00;;;14.93;;
38222;SDS011;24024;51.186;6.458;2023-11-21T12:41:30;35.35;;;16.10;;
38222;SDS011;24024;51.186;6.458;2023-11-21T12:43:57;31.98;;;14.82;;
38222;SDS011;24024;51.186;6.458;2023-11-21T12:46:24;31.20;;;15.68;;
38222;SDS011;24024;51.186;6.458;2023-11-21T12:48:55;33.35;;;14.77;;
38222;SDS011;24024;51.186;6.458;2023-11-21T12:51:24;35.13;;;15.70;;
38222;SDS011;24024;51.186;6.458;2023-11-21T12:53:51;28.65;;;14.60;;
38222;SDS011;24024;51.186;6.458;2023-11-21T12:56:20;29.58;;;13.23;;
38222;SDS011;24024;51.186;6.458;2023-11-21T12:58:49;33.08;;;14.40;;
38222;SDS011;24024;51.186;6.458;2023-11-21T13:01:18;31.45;;;14.85;;
38222;SDS011;24024;51.186;6.458;2023-11-21T13:03:46;37.45;;;15.57;;
38222;SDS011;24024;51.186;6.458;2023-11-21T13:06:18;29.27;;;14.10;;
38222;SDS011;24024;51.186;6.458;2023-11-21T13:08:46;35.00;;;14.82;;
38222;SDS011;24024;51.186;6.458;2023-11-21T13:11:13;32.38;;;14.57;;
38222;SDS011;24024;51.186;6.458;2023-11-21T13:13:41;34.30;;;14.63;;
38222;SDS011;24024;51.186;6.458;2023-11-21T13:16:11;33.78;;;15.23;;
38222;SDS011;24024;51.186;6.458;2023-11-21T13:18:39;32.47;;;15.00;;
38222;SDS011;24024;51.186;6.458;2023-11-21T13:21:08;29.77;;;13.40;;
38222;SDS011;24024;51.186;6.458;2023-11-21T13:23:44;29.42;;;13.45;;
38222;SDS011;24024;51.186;6.458;2023-11-21T13:26:14;34.03;;;13.85;;
38222;SDS011;24024;51.186;6.458;2023-11-21T13:28:46;28.05;;;12.55;;
38222;SDS011;24024;51.186;6.458;2023-11-21T13:31:16;35.47;;;14.57;;
38222;SDS011;24024;51.186;6.458;2023-11-21T13:33:53;25.98;;;13.30;;
38222;SDS011;24024;51.186;6.458;2023-11-21T13:36:25;27.63;;;13.23;;
38222;SDS011;24024;51.186;6.458;2023-11-21T13:38:58;27.55;;;14.27;;
38222;SDS011;24024;51.186;6.458;2023-11-21T13:41:30;28.65;;;13.57;;
38222;SDS011;24024;51.186;6.458;2023-11-21T13:43:58;32.33;;;14.25;;
38222;SDS011;24024;51.186;6.458;2023-11-21T13:46:52;29.23;;;13.48;;
38222;SDS011;24024;51.186;6.458;2023-11-21T13:49:23;28.02;;;13.52;;
38222;SDS011;24024;51.186;6.458;2023-11-21T13:51:53;30.20;;;13.88;;
38222;SDS011;24024;51.186;6.458;2023-11-21T13:54:22;28.83;;;14.35;;
38222;SDS011;24024;51.186;6.458;2023-11-21T13:56:51;30.92;;;14.65;;
38222;SDS011;24024;51.186;6.458;2023-11-21T13:59:17;31.27;;;14.32;;
38222;SDS011;24024;51.186;6.458;2023-11-21T14:01:52;29.83;;;13.90;;
38222;SDS011;24024;51.186;6.458;2023-11-21T14:04:19;34.75;;;16.83;;
38222;SDS011;24024;51.186;6.458;2023-11-21T14:06:49;34.30;;;15.98;;
38222;SDS011;24024;51.186;6.458;2023-11-21T14:09:21;30.67;;;15.75;;
38222;SDS011;24024;51.186;6.458;2023-11-21T14:11:52;32.85;;;15.98;;
38222;SDS011;24024;51.186;6.458;2023-11-21T14:14:22;40.38;;;18.15;;
38222;SDS011;24024;51.186;6.458;2023-11-21T14:16:56;46.05;;;21.92;;
38222;SDS011;24024;51.186;6.458;2023-11-21T14:19:25;39.42;;;18.42;;
38222;SDS011;24024;51.186;6.458;2023-11-21T14:21:59;40.53;;;17.95;;
38222;SDS011;24024;51.186;6.458;2023-11-21T14:24:26;40.00;;;17.85;;
38222;SDS011;24024;51.186;6.458;2023-11-21T14:26:52;36.33;;;17.42;;
38222;SDS011;24024;51.186;6.458;2023-11-21T14:29:20;37.90;;;17.98;;
38222;SDS011;24024;51.186;6.458;2023-11-21T14:31:51;39.15;;;18.85;;
38222;SDS011;24024;51.186;6.458;2023-11-21T14:34:25;33.63;;;17.65;;
38222;SDS011;24024;51.186;6.458;2023-11-21T14:36:53;37.85;;;17.75;;
38222;SDS011;24024;51.186;6.458;2023-11-21T14:39:19;35.20;;;17.67;;
38222;SDS011;24024;51.186;6.458;2023-11-21T14:41:50;39.17;;;17.98;;
38222;SDS011;24024;51.186;6.458;2023-11-21T14:44:19;38.03;;;17.75;;
38222;SDS011;24024;51.186;6.458;2023-11-21T14:46:54;40.03;;;19.42;;
38222;SDS011;24024;51.186;6.458;2023-11-21T14:49:24;34.60;;;17.48;;